Mc Caysville, Georgia
Current Conditions -  °F | °C
As of 1:15 PM on Thursday 29 Jan 2015 (Local Time) from KRZR Reporting Station
Few Clouds Few Clouds  
Wind Chill: 52°   Ceiling: Unl
Heat Index: 52°   Visibility: 10mi
Dew Point: 32°   Wind: 14mph
Humidity: 47%   Direction: 200°SSW
Pressure: 30.11"   Gusts: NA
Location:  34.9342°N, 84.3792°W
Report Text: KRZR 291815Z AUTO 20012KT 10SM FEW095 11/00 A3011 RMK
Loading
Personal Weather Stations






























Interactive Weather Map New forecast layout! Learn more

10-Day Weather Forecast

Advertisements
Track Severe Weather on mobile